Time;durP1;ratioP1;P1;durP2;ratioP2;P2;SDS_P1;SDS_P2;PMS_P1;PMS_P2;Temp;Humidity;BMP_temperature;BMP_pressure;BME280_temperature;BME280_humidity;BME280_pressure;Samples;Min_cycle;Max_cycle;Signal;HPM_P1;HPM_P2
2024/03/26 00:02:12;;;;;;;10.13;3.78;;;5.70;99.90;;;;;;5025063;28;20042;-86
2024/03/26 00:04:38;;;;;;;10.82;4.22;;;5.70;99.90;;;;;;5006137;28;20062;-88
2024/03/26 00:07:04;;;;;;;8.00;3.40;;;5.80;99.90;;;;;;4993590;28;20623;-87
2024/03/26 00:09:30;;;;;;;7.60;3.80;;;5.70;99.90;;;;;;4993320;28;20048;-86
2024/03/26 00:11:56;;;;;;;9.57;4.45;;;5.70;99.90;;;;;;5025155;28;20100;-86
2024/03/26 00:14:21;;;;;;;11.35;4.38;;;5.60;99.90;;;;;;4991422;28;20091;-87
2024/03/26 00:16:47;;;;;;;8.95;4.30;;;5.60;99.90;;;;;;4990958;28;20136;-87
2024/03/26 00:19:13;;;;;;;9.48;4.30;;;5.60;99.90;;;;;;5009603;28;20037;-87
2024/03/26 00:21:39;;;;;;;9.93;4.25;;;5.70;99.90;;;;;;4991181;28;20080;-88
2024/03/26 00:24:04;;;;;;;11.10;4.38;;;5.60;99.90;;;;;;5009577;28;20073;-86
2024/03/26 00:26:31;;;;;;;8.65;4.00;;;5.60;99.90;;;;;;4989615;28;20520;-86
2024/03/26 00:28:57;;;;;;;8.52;4.35;;;5.60;99.90;;;;;;4991675;28;20501;-87
2024/03/26 00:31:23;;;;;;;8.57;3.63;;;5.50;99.90;;;;;;4984937;28;20049;-87
2024/03/26 00:33:49;;;;;;;10.35;4.28;;;5.50;99.90;;;;;;5005923;28;20046;-87
2024/03/26 00:36:15;;;;;;;8.80;4.20;;;5.60;99.90;;;;;;4994998;28;20081;-88
2024/03/26 00:38:41;;;;;;;8.60;4.32;;;5.50;99.90;;;;;;4992307;28;20080;-89
2024/03/26 00:41:10;;;;;;;9.25;4.00;;;5.40;99.90;;;;;;4992298;28;20166;-88
2024/03/26 00:43:36;;;;;;;8.63;4.22;;;5.50;99.90;;;;;;4992419;28;20121;-88
2024/03/26 00:46:01;;;;;;;9.30;4.07;;;5.60;99.90;;;;;;4994129;28;20124;-90
2024/03/26 00:48:27;;;;;;;9.45;3.85;;;5.60;99.90;;;;;;4991148;28;20168;-88
2024/03/26 00:50:53;;;;;;;9.73;4.32;;;5.60;99.90;;;;;;5007343;28;20042;-89
2024/03/26 00:53:19;;;;;;;15.23;4.75;;;5.60;99.90;;;;;;4995906;28;20049;-88
2024/03/26 00:55:44;;;;;;;10.02;4.10;;;5.60;99.90;;;;;;4996475;28;20042;-87
2024/03/26 00:58:10;;;;;;;9.55;4.13;;;5.60;99.90;;;;;;4995738;28;20038;-87
2024/03/26 01:00:38;;;;;;;8.90;4.22;;;5.60;99.90;;;;;;4997172;28;20037;-86
2024/03/26 01:03:04;;;;;;;7.55;4.10;;;5.60;99.90;;;;;;4993695;28;20397;-89
2024/03/26 01:05:31;;;;;;;9.15;4.05;;;5.50;99.90;;;;;;4997642;28;20049;-87
2024/03/26 01:07:57;;;;;;;10.13;4.13;;;5.50;99.90;;;;;;4990074;28;20038;-89
2024/03/26 01:10:23;;;;;;;9.48;4.60;;;5.40;99.90;;;;;;5027223;28;20519;-88
2024/03/26 01:12:49;;;;;;;11.70;4.78;;;5.40;99.90;;;;;;4995300;28;20045;-87
2024/03/26 01:15:14;;;;;;;9.13;4.05;;;5.40;99.90;;;;;;4997775;28;20060;-88
2024/03/26 01:17:40;;;;;;;8.65;4.78;;;5.30;99.90;;;;;;4997381;28;20505;-87
2024/03/26 01:20:07;;;;;;;10.27;3.90;;;5.20;99.90;;;;;;5012251;28;20091;-88
2024/03/26 01:22:33;;;;;;;7.28;4.32;;;5.30;99.90;;;;;;4994737;28;20047;-88
2024/03/26 01:24:59;;;;;;;10.57;4.28;;;5.20;99.90;;;;;;5013433;28;20056;-88
2024/03/26 01:27:24;;;;;;;8.57;3.90;;;5.20;99.90;;;;;;5010655;28;20045;-88
2024/03/26 01:29:50;;;;;;;7.68;3.92;;;5.20;99.90;;;;;;4994266;28;20049;-87
2024/03/26 01:32:16;;;;;;;10.25;3.90;;;5.10;99.90;;;;;;4993414;28;20045;-88
2024/03/26 01:34:42;;;;;;;8.88;4.10;;;5.10;99.90;;;;;;5010758;28;20095;-88
2024/03/26 01:37:10;;;;;;;7.28;3.42;;;5.20;99.90;;;;;;4990468;28;20038;-88
2024/03/26 01:39:36;;;;;;;9.45;3.90;;;5.00;99.90;;;;;;4986681;28;20034;-88
2024/03/26 01:42:02;;;;;;;8.27;3.97;;;5.00;99.90;;;;;;4992297;28;20072;-87
2024/03/26 01:44:28;;;;;;;9.00;3.92;;;5.00;99.90;;;;;;5012332;28;20060;-87
2024/03/26 01:46:56;;;;;;;9.48;4.00;;;5.00;99.90;;;;;;4997996;28;20044;-89
2024/03/26 01:49:23;;;;;;;8.98;4.60;;;4.90;99.90;;;;;;4993840;28;20061;-87
2024/03/26 01:51:49;;;;;;;8.27;3.90;;;5.00;99.90;;;;;;4993624;28;20049;-87
2024/03/26 01:54:15;;;;;;;9.40;4.05;;;4.90;99.90;;;;;;4995185;28;20041;-90
2024/03/26 01:56:42;;;;;;;8.00;4.18;;;4.80;99.90;;;;;;5042898;28;20034;-89
2024/03/26 01:59:08;;;;;;;8.15;3.90;;;4.80;99.90;;;;;;4995676;28;20049;-87
2024/03/26 02:01:35;;;;;;;11.48;4.32;;;4.90;99.90;;;;;;4994633;28;20038;-87
2024/03/26 02:04:04;;;;;;;9.32;4.15;;;4.80;99.90;;;;;;5042743;28;20041;-88
2024/03/26 02:06:35;;;;;;;10.10;4.20;;;4.90;99.90;;;;;;5008036;28;20041;-87
2024/03/26 02:09:02;;;;;;;11.45;3.80;;;4.90;99.90;;;;;;4995443;28;20083;-87
2024/03/26 02:11:29;;;;;;;9.93;4.15;;;4.90;99.90;;;;;;5024149;28;20115;-89
2024/03/26 02:13:54;;;;;;;9.15;4.03;;;4.90;99.90;;;;;;5019129;28;20136;-88
2024/03/26 02:16:20;;;;;;;9.52;4.47;;;4.90;99.90;;;;;;4994181;28;20144;-89
2024/03/26 02:18:48;;;;;;;7.72;3.80;;;5.00;99.90;;;;;;5010438;28;20112;-89
2024/03/26 02:21:14;;;;;;;7.93;4.07;;;5.10;99.90;;;;;;5011877;28;20071;-87
2024/03/26 02:23:39;;;;;;;10.05;4.43;;;5.00;99.90;;;;;;4991034;28;20486;-88
2024/03/26 02:26:05;;;;;;;10.88;4.70;;;5.00;99.90;;;;;;5043220;28;20048;-90
2024/03/26 02:28:40;;;;;;;10.77;3.92;;;4.90;99.90;;;;;;4991634;28;20042;-88
2024/03/26 02:31:07;;;;;;;11.90;4.38;;;4.90;99.90;;;;;;4992269;28;20073;-89
2024/03/26 02:33:35;;;;;;;8.18;4.32;;;5.10;99.90;;;;;;5011680;28;20124;-87
2024/03/26 02:36:02;;;;;;;12.38;4.68;;;4.90;99.90;;;;;;4995153;28;20173;-88
2024/03/26 02:38:28;;;;;;;9.77;4.30;;;5.00;99.90;;;;;;4993845;28;20057;-90
2024/03/26 02:40:59;;;;;;;12.35;4.22;;;5.00;99.90;;;;;;5010330;28;20069;-88
2024/03/26 02:43:28;;;;;;;8.70;4.18;;;4.90;99.90;;;;;;5012405;28;20049;-89
2024/03/26 02:46:10;;;;;;;9.65;4.22;;;4.90;99.90;;;;;;5012739;28;20046;-89
2024/03/26 02:48:36;;;;;;;9.45;4.30;;;4.90;99.90;;;;;;4995292;28;20420;-90
2024/03/26 02:51:03;;;;;;;11.82;4.68;;;4.90;99.90;;;;;;5007623;28;20041;-84
2024/03/26 02:53:28;;;;;;;10.65;4.53;;;4.90;99.90;;;;;;4992384;28;20107;-84
2024/03/26 02:55:54;;;;;;;10.18;4.57;;;4.90;99.90;;;;;;5007441;28;20052;-89
2024/03/26 02:58:20;;;;;;;10.77;4.15;;;4.90;99.90;;;;;;4993667;28;20088;-88
2024/03/26 03:00:46;;;;;;;9.35;4.63;;;4.90;99.90;;;;;;4995299;28;20049;-90
2024/03/26 03:03:12;;;;;;;10.07;4.65;;;4.90;99.90;;;;;;4994292;28;20522;-90
2024/03/26 03:05:40;;;;;;;9.07;4.28;;;5.00;99.90;;;;;;4991909;28;20052;-89
2024/03/26 03:08:08;;;;;;;10.18;4.50;;;4.80;99.90;;;;;;4996335;28;20116;-89
2024/03/26 03:10:40;;;;;;;8.18;4.55;;;4.90;99.90;;;;;;4993125;28;20060;-90
2024/03/26 03:13:09;;;;;;;9.57;5.10;;;4.90;99.90;;;;;;4998244;28;20045;-90
2024/03/26 03:15:38;;;;;;;8.93;4.60;;;4.90;99.90;;;;;;5006168;28;20050;-88
2024/03/26 03:18:04;;;;;;;9.35;5.07;;;4.90;99.90;;;;;;4995929;28;20046;-90
2024/03/26 03:20:30;;;;;;;9.32;4.93;;;5.00;99.90;;;;;;4991417;28;20153;-90
2024/03/26 03:22:57;;;;;;;10.50;4.90;;;5.00;99.90;;;;;;5009142;28;20497;-89
2024/03/26 03:25:30;;;;;;;11.15;4.22;;;4.90;99.90;;;;;;4990390;28;20033;-91
2024/03/26 03:31:32;;;;;;;11.23;4.70;;;5.00;99.90;;;;;;5007569;28;20053;-89
2024/03/26 03:33:58;;;;;;;8.95;4.63;;;4.90;99.90;;;;;;4992810;28;20054;-91
2024/03/26 03:36:24;;;;;;;10.07;4.40;;;5.00;99.90;;;;;;4991321;28;20034;-91
2024/03/26 03:38:50;;;;;;;11.05;4.85;;;4.90;99.90;;;;;;4996049;28;20056;-89
2024/03/26 03:41:21;;;;;;;9.25;4.47;;;5.00;99.90;;;;;;5023179;28;20099;-90
2024/03/26 03:43:46;;;;;;;10.48;4.47;;;5.00;99.90;;;;;;5007575;28;20044;-85
2024/03/26 03:46:14;;;;;;;11.10;4.70;;;5.00;99.90;;;;;;4995583;28;20121;-91
2024/03/26 03:48:42;;;;;;;9.40;4.78;;;4.90;99.90;;;;;;4992430;28;20116;-90
2024/03/26 03:51:08;;;;;;;6.22;4.10;;;4.90;99.90;;;;;;4995155;28;20088;-91
2024/03/26 03:53:38;;;;;;;10.15;4.45;;;4.90;99.90;;;;;;4993593;28;20048;-92
2024/03/26 03:56:04;;;;;;;8.98;4.60;;;4.90;99.90;;;;;;4997561;28;20041;-90
2024/03/26 03:58:30;;;;;;;9.43;4.93;;;4.80;99.90;;;;;;4994714;28;20087;-91
2024/03/26 04:00:56;;;;;;;11.05;4.60;;;4.90;99.90;;;;;;5008418;28;20079;-88
2024/03/26 04:03:30;;;;;;;8.98;4.60;;;4.90;99.90;;;;;;4993230;28;20111;-88
2024/03/26 04:05:56;;;;;;;10.88;4.50;;;4.90;99.90;;;;;;5009507;28;20073;-90
2024/03/26 04:08:27;;;;;;;8.25;5.20;;;4.90;99.90;;;;;;5013347;28;20129;-91
2024/03/26 04:10:57;;;;;;;9.45;4.63;;;4.90;99.90;;;;;;4993445;28;20038;-89
2024/03/26 04:13:23;;;;;;;7.35;4.68;;;4.80;99.90;;;;;;4993264;28;20049;-89
2024/03/26 04:15:48;;;;;;;9.20;4.80;;;4.90;99.90;;;;;;4992375;28;20045;-89
2024/03/26 04:18:14;;;;;;;10.40;5.28;;;4.90;99.90;;;;;;4994481;28;20060;-91
2024/03/26 04:20:40;;;;;;;9.68;4.53;;;4.90;99.90;;;;;;4996693;28;20128;-91
2024/03/26 04:23:06;;;;;;;8.68;4.35;;;4.80;99.90;;;;;;4995305;28;20375;-91
2024/03/26 04:25:31;;;;;;;8.55;5.03;;;4.90;99.90;;;;;;4997331;28;20095;-90
2024/03/26 04:27:59;;;;;;;10.77;4.72;;;4.80;99.90;;;;;;4996728;28;20068;-89
2024/03/26 04:30:26;;;;;;;7.78;4.50;;;4.90;99.90;;;;;;4999973;28;20099;-87
2024/03/26 04:32:56;;;;;;;8.80;4.47;;;4.90;99.90;;;;;;5008134;28;20049;-90
2024/03/26 04:35:21;;;;;;;9.10;4.95;;;4.90;99.90;;;;;;5002393;28;20041;-92
2024/03/26 04:37:48;;;;;;;9.85;5.25;;;4.90;99.90;;;;;;4996812;28;20120;-87
2024/03/26 04:40:14;;;;;;;8.75;4.63;;;4.90;99.90;;;;;;5000336;28;20049;-87
2024/03/26 04:42:42;;;;;;;8.13;4.13;;;4.90;99.90;;;;;;4996025;28;20038;-90
2024/03/26 04:45:19;;;;;;;9.50;4.40;;;4.90;99.90;;;;;;5033296;28;20421;-92
2024/03/26 04:47:45;;;;;;;9.18;4.68;;;4.90;99.90;;;;;;4996189;28;20057;-91
2024/03/26 04:50:11;;;;;;;8.70;4.28;;;4.90;99.90;;;;;;4998553;28;20144;-87
2024/03/26 04:52:36;;;;;;;10.40;4.53;;;5.00;99.90;;;;;;4997248;28;20029;-90
2024/03/26 04:55:03;;;;;;;10.27;4.65;;;5.00;99.90;;;;;;4996784;28;20056;-90
2024/03/26 04:57:29;;;;;;;9.05;4.35;;;4.90;99.90;;;;;;4994700;28;20049;-91
2024/03/26 04:59:56;;;;;;;9.32;4.60;;;4.90;99.90;;;;;;5010395;28;20078;-90
2024/03/26 05:02:21;;;;;;;9.30;4.32;;;4.90;99.90;;;;;;4990413;28;20046;-88
2024/03/26 05:04:47;;;;;;;8.75;4.40;;;4.90;99.90;;;;;;4996229;28;20041;-91
2024/03/26 05:07:13;;;;;;;9.43;4.22;;;4.90;99.90;;;;;;4997863;28;20044;-90
2024/03/26 05:09:39;;;;;;;10.43;5.03;;;4.90;99.90;;;;;;4997049;28;20513;-88
2024/03/26 05:12:05;;;;;;;8.32;4.05;;;4.90;99.90;;;;;;4992083;28;20490;-90
2024/03/26 05:14:30;;;;;;;7.93;4.20;;;4.90;99.90;;;;;;4994926;28;20049;-90
2024/03/26 05:16:56;;;;;;;9.52;4.03;;;4.90;99.90;;;;;;4996700;28;20056;-91
2024/03/26 05:19:23;;;;;;;6.68;4.28;;;4.90;99.90;;;;;;5010689;28;20048;-91
2024/03/26 05:21:51;;;;;;;9.98;4.30;;;4.80;99.90;;;;;;4995354;28;20046;-92
2024/03/26 05:24:17;;;;;;;7.43;3.97;;;4.90;99.90;;;;;;4995295;28;20041;-90
2024/03/26 05:26:43;;;;;;;8.45;4.90;;;5.00;99.90;;;;;;4994429;28;20072;-91
2024/03/26 05:29:09;;;;;;;12.20;4.38;;;4.90;99.90;;;;;;5024389;28;20046;-92
2024/03/26 05:31:34;;;;;;;6.93;3.95;;;4.80;99.90;;;;;;4999672;28;20033;-92
2024/03/26 05:34:00;;;;;;;9.02;4.30;;;4.80;99.90;;;;;;5021819;28;20095;-91
2024/03/26 05:36:28;;;;;;;7.35;3.85;;;4.90;99.90;;;;;;5041214;28;20510;-91
2024/03/26 05:38:54;;;;;;;9.25;4.32;;;4.80;99.90;;;;;;4996464;28;20118;-91
2024/03/26 05:41:22;;;;;;;10.35;5.00;;;4.80;99.90;;;;;;4997637;28;20485;-91
2024/03/26 05:43:52;;;;;;;6.68;3.90;;;4.80;99.90;;;;;;4992866;28;20041;-91
2024/03/26 05:46:19;;;;;;;11.52;4.47;;;4.80;99.90;;;;;;4998275;28;20084;-88
2024/03/26 05:48:45;;;;;;;8.57;4.35;;;4.80;99.90;;;;;;5040429;28;20038;-88
2024/03/26 05:51:11;;;;;;;7.28;3.95;;;4.90;99.90;;;;;;4996026;28;20111;-91
2024/03/26 05:53:39;;;;;;;8.95;4.22;;;4.80;99.90;;;;;;4990275;28;20407;-92
2024/03/26 05:56:05;;;;;;;7.35;3.92;;;4.80;99.90;;;;;;5011634;28;20490;-91
2024/03/26 05:58:31;;;;;;;8.60;4.05;;;4.80;99.90;;;;;;4996483;28;20049;-92
2024/03/26 06:01:05;;;;;;;7.93;4.18;;;4.80;99.90;;;;;;5011914;28;20191;-91
2024/03/26 06:03:31;;;;;;;7.93;4.63;;;4.90;99.90;;;;;;4993194;28;20033;-91
2024/03/26 06:06:08;;;;;;;6.95;3.90;;;4.80;99.90;;;;;;4993804;28;20576;-92
2024/03/26 06:08:33;;;;;;;9.93;4.30;;;4.90;99.90;;;;;;4992504;28;20049;-91
2024/03/26 06:10:59;;;;;;;7.95;4.22;;;4.90;99.90;;;;;;4991898;28;20050;-91
2024/03/26 06:13:25;;;;;;;7.72;4.35;;;5.10;99.90;;;;;;5009612;28;20127;-89
2024/03/26 06:16:00;;;;;;;9.77;4.72;;;5.00;99.90;;;;;;4990582;28;20729;-94
2024/03/26 06:18:26;;;;;;;8.43;4.15;;;5.00;99.90;;;;;;5022722;28;20041;-91
2024/03/26 06:20:52;;;;;;;9.43;4.47;;;5.00;99.90;;;;;;5010458;28;20044;-90
2024/03/26 06:23:20;;;;;;;8.27;4.65;;;5.00;99.90;;;;;;4994991;28;20065;-90
2024/03/26 06:25:46;;;;;;;7.57;4.00;;;5.00;99.90;;;;;;5009049;28;20038;-90
2024/03/26 06:28:11;;;;;;;8.52;4.18;;;5.00;99.90;;;;;;4995176;28;20084;-90
2024/03/26 06:30:38;;;;;;;6.72;3.75;;;5.00;99.90;;;;;;5012553;28;20045;-90
2024/03/26 06:33:04;;;;;;;7.43;3.92;;;5.00;99.90;;;;;;4996730;28;20041;-91
2024/03/26 06:35:30;;;;;;;8.95;4.57;;;5.10;99.90;;;;;;4993737;28;20128;-91
2024/03/26 06:37:56;;;;;;;7.75;3.97;;;5.10;99.90;;;;;;5011778;28;20159;-92
2024/03/26 06:40:21;;;;;;;8.85;4.25;;;5.10;99.90;;;;;;4997894;28;20104;-93
2024/03/26 06:42:59;;;;;;;8.80;4.20;;;5.10;99.90;;;;;;4997980;28;20037;-89
2024/03/26 06:45:25;;;;;;;9.13;4.30;;;5.20;99.90;;;;;;4995887;28;20079;-85
2024/03/26 06:47:51;;;;;;;8.15;3.95;;;5.20;99.90;;;;;;5008573;28;20072;-85
2024/03/26 06:50:17;;;;;;;8.43;3.90;;;5.30;99.90;;;;;;5003608;28;20046;-83
2024/03/26 06:52:47;;;;;;;7.43;4.80;;;5.40;99.90;;;;;;5025550;28;20138;-83
2024/03/26 06:55:14;;;;;;;10.38;4.65;;;5.50;99.90;;;;;;5005798;28;20095;-85
2024/03/26 06:57:40;;;;;;;6.82;3.88;;;5.40;99.90;;;;;;4991913;28;20063;-84
2024/03/26 07:00:07;;;;;;;6.95;3.88;;;5.60;99.90;;;;;;4992192;28;20620;-85
2024/03/26 07:02:36;;;;;;;8.18;4.10;;;5.70;99.90;;;;;;5007749;28;20068;-84
2024/03/26 07:05:02;;;;;;;8.15;3.70;;;5.80;99.90;;;;;;5006086;28;20033;-84
2024/03/26 07:07:28;;;;;;;7.07;4.20;;;5.90;99.90;;;;;;4993111;28;20044;-83
2024/03/26 07:09:54;;;;;;;9.15;3.97;;;6.00;99.90;;;;;;5003789;28;20519;-86
2024/03/26 07:12:20;;;;;;;7.85;4.28;;;6.00;99.90;;;;;;5003243;28;20046;-85
2024/03/26 07:14:53;;;;;;;8.13;4.13;;;6.10;99.90;;;;;;5038908;28;20037;-84
2024/03/26 07:17:22;;;;;;;6.78;4.18;;;6.20;99.90;;;;;;4993498;28;20383;-85
2024/03/26 07:19:48;;;;;;;8.00;4.15;;;6.20;99.90;;;;;;5021697;28;20049;-84
2024/03/26 07:22:14;;;;;;;7.22;4.20;;;6.40;99.90;;;;;;5002063;28;20056;-87
2024/03/26 07:24:40;;;;;;;8.38;3.28;;;6.40;99.90;;;;;;4990774;28;20133;-85
2024/03/26 07:27:11;;;;;;;10.40;4.10;;;6.50;99.90;;;;;;5005742;28;20052;-84
2024/03/26 07:29:40;;;;;;;6.25;3.70;;;6.60;99.90;;;;;;5002455;28;20419;-82
2024/03/26 07:32:22;;;;;;;5.63;3.55;;;6.70;99.90;;;;;;4991699;28;20080;-82
2024/03/26 07:34:49;;;;;;;6.65;3.50;;;6.80;99.90;;;;;;4990831;28;20722;-83
2024/03/26 07:37:22;;;;;;;8.35;3.90;;;7.00;99.90;;;;;;5006612;28;20080;-85
2024/03/26 07:39:48;;;;;;;6.85;3.85;;;7.10;99.90;;;;;;5005105;28;20072;-83
2024/03/26 07:42:14;;;;;;;7.43;3.88;;;7.10;99.90;;;;;;4990547;28;20425;-83
2024/03/26 07:44:40;;;;;;;7.18;3.67;;;7.30;99.90;;;;;;5040320;28;20055;-83
2024/03/26 07:47:07;;;;;;;6.47;3.70;;;7.40;99.90;;;;;;5005445;28;20128;-85
2024/03/26 07:49:32;;;;;;;8.75;4.30;;;7.40;99.90;;;;;;5036858;28;20041;-83
2024/03/26 07:51:58;;;;;;;4.55;3.65;;;7.50;99.90;;;;;;4989439;28;20045;-84
2024/03/26 07:54:24;;;;;;;7.93;3.92;;;7.50;99.90;;;;;;5006397;28;20045;-84
2024/03/26 07:56:50;;;;;;;9.43;4.10;;;7.70;99.90;;;;;;4990464;28;20044;-84
2024/03/26 07:59:15;;;;;;;8.80;4.30;;;7.70;99.90;;;;;;4990522;28;21213;-85
2024/03/26 08:01:41;;;;;;;8.75;3.83;;;7.90;99.90;;;;;;5007186;28;20120;-84
2024/03/26 08:04:10;;;;;;;8.38;3.78;;;7.90;99.90;;;;;;5025939;28;20077;-84
2024/03/26 08:06:36;;;;;;;6.28;3.38;;;8.10;99.90;;;;;;4992850;28;20049;-85
2024/03/26 08:09:02;;;;;;;6.10;3.50;;;8.20;99.90;;;;;;5008117;28;20037;-84
2024/03/26 08:11:27;;;;;;;8.48;4.55;;;8.30;99.90;;;;;;4991592;28;20638;-81
2024/03/26 08:13:53;;;;;;;5.05;3.25;;;8.40;99.90;;;;;;5027438;28;20076;-84
2024/03/26 08:16:19;;;;;;;8.23;3.92;;;8.50;99.90;;;;;;4990901;28;20083;-85
2024/03/26 08:18:44;;;;;;;7.88;3.53;;;8.60;99.90;;;;;;4990466;28;20653;-83
2024/03/26 08:21:10;;;;;;;7.60;3.40;;;8.70;99.90;;;;;;5039309;28;20139;-82
2024/03/26 08:23:36;;;;;;;6.32;3.72;;;8.80;99.90;;;;;;5007082;28;20132;-85
2024/03/26 08:26:02;;;;;;;5.95;3.45;;;8.80;99.90;;;;;;5011012;28;20041;-84
2024/03/26 08:28:27;;;;;;;6.10;3.80;;;8.90;99.90;;;;;;4993230;28;20041;-84
2024/03/26 08:30:53;;;;;;;7.45;3.47;;;9.00;99.90;;;;;;5004414;28;20136;-83
2024/03/26 08:33:20;;;;;;;6.03;3.45;;;9.00;99.90;;;;;;4993512;28;20100;-84
2024/03/26 08:35:46;;;;;;;7.88;3.30;;;9.00;99.90;;;;;;5010682;28;20520;-84
2024/03/26 08:38:12;;;;;;;5.53;3.33;;;9.10;99.90;;;;;;5009683;28;20040;-83
2024/03/26 08:40:38;;;;;;;6.82;3.55;;;9.20;99.90;;;;;;5007281;28;20041;-85
2024/03/26 08:43:04;;;;;;;7.35;3.75;;;9.20;99.90;;;;;;5007396;28;20042;-85
2024/03/26 08:45:30;;;;;;;6.97;3.88;;;9.30;99.90;;;;;;4992250;28;20099;-84
2024/03/26 08:47:56;;;;;;;7.13;4.00;;;9.40;99.90;;;;;;5037150;28;20045;-84
2024/03/26 08:50:25;;;;;;;5.78;3.60;;;9.40;99.90;;;;;;4994439;28;20044;-83
2024/03/26 08:52:50;;;;;;;6.15;3.50;;;9.40;99.90;;;;;;4992195;28;20132;-85
2024/03/26 08:55:16;;;;;;;6.80;3.53;;;9.40;99.90;;;;;;5008145;28;20116;-85
2024/03/26 08:57:42;;;;;;;6.22;3.50;;;9.50;99.90;;;;;;5010168;28;20478;-85
2024/03/26 09:00:11;;;;;;;6.82;3.75;;;9.50;99.90;;;;;;4991839;28;20080;-84
2024/03/26 09:02:37;;;;;;;7.93;3.72;;;9.50;99.90;;;;;;5008254;28;20077;-84
2024/03/26 09:05:03;;;;;;;6.43;3.40;;;9.60;99.90;;;;;;5004686;28;20068;-84
2024/03/26 09:07:29;;;;;;;5.40;3.60;;;9.60;99.90;;;;;;5038762;28;20041;-83
2024/03/26 09:09:55;;;;;;;6.55;3.33;;;9.60;99.90;;;;;;5005991;28;20072;-84
2024/03/26 09:12:21;;;;;;;7.47;3.90;;;9.70;99.90;;;;;;5004828;28;20052;-85
2024/03/26 09:14:46;;;;;;;7.85;3.58;;;9.60;99.90;;;;;;5008995;28;20046;-84
2024/03/26 09:17:12;;;;;;;6.57;3.53;;;9.70;99.90;;;;;;4992116;28;20073;-82
2024/03/26 09:19:38;;;;;;;6.07;3.58;;;9.70;99.90;;;;;;4993506;28;20041;-84
2024/03/26 09:22:04;;;;;;;7.15;3.90;;;9.70;99.90;;;;;;5039403;28;20048;-84
2024/03/26 09:24:30;;;;;;;6.97;4.07;;;9.80;99.90;;;;;;4994666;28;20052;-85
2024/03/26 09:26:55;;;;;;;5.72;3.40;;;9.80;99.90;;;;;;4990468;28;20041;-84
2024/03/26 09:29:21;;;;;;;5.65;3.50;;;9.90;99.90;;;;;;5007610;28;20053;-84
2024/03/26 09:31:47;;;;;;;7.68;4.10;;;10.00;99.90;;;;;;5005258;28;20049;-84
2024/03/26 09:34:14;;;;;;;5.65;3.58;;;10.10;99.90;;;;;;4991624;28;20135;-84
2024/03/26 09:36:40;;;;;;;6.07;3.67;;;10.20;99.90;;;;;;4992391;28;20051;-83
2024/03/26 09:39:06;;;;;;;6.60;3.13;;;10.30;99.90;;;;;;4990979;28;20045;-84
2024/03/26 09:41:36;;;;;;;5.65;3.78;;;10.40;99.90;;;;;;4991969;28;20049;-85
2024/03/26 09:44:03;;;;;;;;;;;10.50;99.90;;;;;;5007614;28;20049;-83
2024/03/26 09:46:30;;;;;;;6.72;4.10;;;10.50;99.90;;;;;;4992517;28;19979;-83
2024/03/26 09:48:58;;;;;;;6.43;3.15;;;10.60;99.90;;;;;;5021411;28;20052;-82
2024/03/26 09:51:25;;;;;;;6.72;3.75;;;10.70;99.90;;;;;;5009390;28;20052;-83
2024/03/26 09:53:50;;;;;;;6.18;3.75;;;10.90;99.90;;;;;;4991390;28;20056;-85
2024/03/26 09:56:17;;;;;;;6.45;3.70;;;11.00;99.90;;;;;;4994970;28;20041;-83
2024/03/26 09:58:43;;;;;;;6.38;3.60;;;11.10;99.90;;;;;;5005247;28;20498;-85
2024/03/26 10:01:11;;;;;;;6.75;4.15;;;11.10;99.90;;;;;;5024036;28;20048;-83
2024/03/26 10:03:40;;;;;;;7.40;3.42;;;11.20;99.90;;;;;;5003720;28;20057;-83
2024/03/26 10:06:06;;;;;;;5.90;3.50;;;11.20;99.90;;;;;;5004580;28;20124;-85
2024/03/26 10:08:31;;;;;;;6.38;3.72;;;11.30;99.90;;;;;;5007496;28;20128;-84
2024/03/26 10:10:58;;;;;;;5.80;3.28;;;11.40;99.90;;;;;;5007902;28;20137;-83
2024/03/26 10:13:24;;;;;;;4.90;3.20;;;11.40;99.90;;;;;;4990498;28;20103;-84
2024/03/26 10:15:50;;;;;;;4.88;3.50;;;11.40;99.90;;;;;;4989776;28;20037;-82
2024/03/26 10:18:17;;;;;;;6.53;3.58;;;11.40;99.90;;;;;;4986356;28;20061;-83
2024/03/26 10:20:43;;;;;;;6.35;3.63;;;11.40;99.90;;;;;;5005493;28;20052;-83
2024/03/26 10:23:08;;;;;;;6.70;3.50;;;11.50;99.90;;;;;;5023148;28;20045;-84
2024/03/26 10:25:34;;;;;;;5.88;3.42;;;11.60;99.90;;;;;;5004219;28;20045;-84
2024/03/26 10:28:04;;;;;;;5.63;3.88;;;11.60;99.90;;;;;;5038083;28;20103;-86
2024/03/26 10:30:30;;;;;;;6.72;3.53;;;11.70;99.90;;;;;;5008272;28;20523;-84
2024/03/26 10:32:57;;;;;;;6.35;3.55;;;11.70;99.90;;;;;;4987580;28;20065;-84
2024/03/26 10:35:24;;;;;;;6.00;3.45;;;11.70;99.90;;;;;;5009363;28;20099;-84
2024/03/26 10:37:55;;;;;;;4.43;3.00;;;11.70;99.90;;;;;;5016783;28;20254;-84
2024/03/26 10:40:22;;;;;;;4.85;2.97;;;11.70;99.90;;;;;;4992769;28;20452;-83
2024/03/26 10:42:58;;;;;;;5.65;3.38;;;11.90;99.90;;;;;;4991939;28;20050;-83
2024/03/26 10:45:24;;;;;;;5.15;3.28;;;12.00;99.90;;;;;;5007926;28;20045;-84
2024/03/26 10:47:52;;;;;;;5.85;3.63;;;12.10;99.90;;;;;;5000592;28;20045;-83
2024/03/26 10:50:19;;;;;;;6.38;3.60;;;12.10;99.90;;;;;;4991986;28;20084;-83
2024/03/26 10:52:48;;;;;;;7.13;3.65;;;12.10;99.90;;;;;;4992691;28;20041;-83
2024/03/26 10:55:14;;;;;;;5.05;3.25;;;12.10;99.90;;;;;;4991841;28;20086;-84
2024/03/26 10:57:44;;;;;;;5.70;3.17;;;12.10;99.90;;;;;;4991492;28;20577;-81
2024/03/26 11:00:12;;;;;;;8.00;4.07;;;12.10;99.90;;;;;;4988469;28;20045;-81
2024/03/26 11:02:40;;;;;;;6.75;3.85;;;12.00;99.80;;;;;;5039392;28;20049;-84
2024/03/26 11:05:08;;;;;;;5.97;3.53;;;11.90;99.90;;;;;;4987180;28;20092;-82
2024/03/26 11:07:35;;;;;;;7.07;3.63;;;11.90;99.90;;;;;;5021641;28;20041;-82
2024/03/26 11:10:09;;;;;;;6.57;3.90;;;11.80;99.90;;;;;;5004503;28;20048;-83
2024/03/26 11:12:41;;;;;;;6.32;3.55;;;11.80;99.90;;;;;;5041513;28;20045;-83
2024/03/26 11:15:17;;;;;;;4.85;3.38;;;11.70;99.90;;;;;;5004244;28;20384;-82
2024/03/26 11:17:56;;;;;;;4.80;3.50;;;11.70;99.90;;;;;;4989793;28;20049;-84
2024/03/26 11:20:23;;;;;;;6.00;3.65;;;11.70;99.90;;;;;;5021300;28;20041;-81
2024/03/26 11:23:20;;;;;;;7.32;4.00;;;11.80;99.90;;;;;;5035956;28;20092;-81
2024/03/26 11:25:53;;;;;;;6.63;3.88;;;11.90;99.90;;;;;;4987853;28;20149;-84
2024/03/26 11:28:21;;;;;;;6.38;3.80;;;11.90;99.90;;;;;;5019706;28;20045;-83
2024/03/26 11:30:47;;;;;;;6.32;3.80;;;12.00;99.90;;;;;;5003032;28;20049;-82
2024/03/26 11:33:28;;;;;;;5.90;3.53;;;12.20;99.90;;;;;;4987467;28;20064;-84
2024/03/26 11:35:55;;;;;;;7.80;4.15;;;12.30;99.90;;;;;;4990297;28;20071;-82
2024/03/26 11:38:21;;;;;;;6.82;4.30;;;12.30;99.90;;;;;;5007557;28;20141;-84
2024/03/26 11:40:48;;;;;;;6.68;3.80;;;12.30;99.90;;;;;;5004707;28;20036;-82
2024/03/26 11:43:14;;;;;;;8.98;3.95;;;12.20;99.90;;;;;;4992389;28;20498;-82
2024/03/26 11:45:43;;;;;;;5.72;3.50;;;12.10;99.90;;;;;;5004620;28;20494;-82
2024/03/26 11:48:10;;;;;;;8.52;3.85;;;12.10;99.90;;;;;;5021691;28;20042;-82
2024/03/26 11:50:36;;;;;;;5.55;3.67;;;12.00;99.90;;;;;;5004645;28;20053;-83
2024/03/26 11:53:04;;;;;;;7.10;4.18;;;12.00;99.90;;;;;;5007301;28;20044;-82
2024/03/26 11:55:30;;;;;;;7.82;3.83;;;11.90;99.90;;;;;;5035745;28;20046;-82
2024/03/26 11:57:56;;;;;;;8.75;3.72;;;11.90;99.90;;;;;;4990560;28;20057;-81
2024/03/26 12:00:23;;;;;;;5.70;3.70;;;11.90;99.90;;;;;;4988874;28;20081;-82
2024/03/26 12:02:49;;;;;;;5.53;3.85;;;11.90;99.90;;;;;;4999609;28;20046;-83
2024/03/26 12:05:15;;;;;;;6.18;4.03;;;11.80;99.90;;;;;;5036866;28;20701;-83
2024/03/26 12:07:42;;;;;;;5.85;3.65;;;11.80;99.90;;;;;;5003863;28;20052;-83
2024/03/26 12:10:10;;;;;;;6.50;3.63;;;11.80;99.90;;;;;;5021138;28;20038;-84
2024/03/26 12:12:40;;;;;;;5.63;3.67;;;11.70;99.90;;;;;;4989077;28;20501;-84
2024/03/26 12:15:12;;;;;;;6.57;3.70;;;11.70;99.90;;;;;;5004968;28;20128;-83
2024/03/26 12:17:40;;;;;;;5.57;3.75;;;11.70;99.90;;;;;;5001442;28;20049;-84
2024/03/26 12:20:09;;;;;;;6.38;4.10;;;11.70;99.90;;;;;;4981684;28;20091;-86
2024/03/26 12:22:36;;;;;;;5.85;3.75;;;11.70;99.90;;;;;;4991075;28;20125;-85
2024/03/26 12:25:06;;;;;;;5.95;3.78;;;11.70;99.90;;;;;;4990677;28;20038;-83
2024/03/26 12:27:40;;;;;;;6.35;4.05;;;11.80;99.90;;;;;;5006165;28;20117;-84
2024/03/26 12:30:09;;;;;;;6.28;3.80;;;11.90;99.90;;;;;;5021962;28;20144;-76
2024/03/26 12:32:35;;;;;;;6.63;3.47;;;11.90;99.90;;;;;;5005647;28;20592;-87
2024/03/26 12:35:01;;;;;;;6.95;3.78;;;12.00;99.90;;;;;;4982725;28;20049;-86
2024/03/26 12:37:27;;;;;;;6.68;3.65;;;12.00;99.90;;;;;;4986344;28;20056;-85
2024/03/26 12:39:52;;;;;;;5.97;3.83;;;12.00;99.90;;;;;;4991401;28;20322;-87
2024/03/26 12:42:18;;;;;;;6.13;4.07;;;12.00;99.90;;;;;;4993266;28;20054;-86
2024/03/26 12:44:44;;;;;;;5.68;3.80;;;12.10;99.90;;;;;;4991410;28;20494;-87
2024/03/26 12:47:10;;;;;;;5.95;3.85;;;12.20;99.90;;;;;;5009381;28;20155;-86
2024/03/26 12:49:37;;;;;;;8.38;4.25;;;12.20;99.90;;;;;;4993513;28;20050;-83
2024/03/26 12:52:04;;;;;;;6.93;3.67;;;12.20;99.90;;;;;;4993490;28;20037;-85
2024/03/26 12:54:30;;;;;;;6.97;3.92;;;12.30;99.90;;;;;;4990115;28;20494;-85
2024/03/26 12:56:56;;;;;;;5.82;3.88;;;12.30;99.90;;;;;;5007662;28;20048;-84